Tiempo atmosférico en la estación meteorológica de Boadilla Fuente San Esteban, Salamanca (785 m.)

Fecha
DESCASC
Temp. máxima en grados centígrados (hora)
DESCASC
Temp. mínima en grados centígrados (hora)
DESCASC
Temp. media en grados centígrados
DESCASC
Racha de viento máxima en m/sg (hora)
DESCASC
Velocidad máxima media en intervalos de 10 minutos(hora)
DESCASC
Precipitaciones diarias en mm
DESCASC
Precipitaciones de 00:00 a 06:00 en mm
DESCASC
Precipitaciones de 06:00 a 12:00 en mm
DESCASC
Precipitaciones de 12:00 a 18:00 en mm
DESCASC
Precipitaciones de 18:00 a 24:00 en mm
DESCASC
10-12-2017 11.4 (14:40) 8 (07:40) 9.7 24.44 (20:30) 13.89 (23:50) 5.2 0 0 0 5.2
09-12-2017 12 (14:50) 9.1 (08:50) 10.6 9.72 (22:20) 6.11 (23:40) 0.2 0 0 0.2 0
08-12-2017 10.9 (16:30) 6.1 (07:50) 8.5 7.5 (21:00) 4.44 (21:00) 0.8 0 0.6 0.2 0
07-12-2017 12.3 (15:00) -1.5 (-00:0) 5.4 4.72 (14:50) 3.33 (08:40) 0 0 0 0 0
06-12-2017 9.7 (16:20) -7 (-00:0) 1.3 3.33 (22:40) 2.5 (22:40) 0.2 0 0.2 0 0
05-12-2017 5 (15:00) -5 (-00:0) 0 4.17 (14:10) 3.33 (15:30) 0 0 0 0 0
04-12-2017 7.4 (13:50) -4 (-00:0) 1.7 9.17 (12:10) 6.67 (12:50) 0 0 0 0 0
03-12-2017 5.6 (14:40) -5.5 (-00:0) 0 10.56 (12:30) 7.5 (15:00) 0 0 0 0 0
02-12-2017 6.8 (16:30) -5.7 (-00:0) 0.6 5.28 (23:30) 3.89 (23:30) 0 0 0 0 0
01-12-2017 7.7 (15:40) -2.6 (-00:0) 2.5 12.5 (11:50) 7.5 (13:50) 0.4 0 0 0.4 0
30-11-2017 6.1 (16:20) -3.2 (-00:0) 1.4 6.94 (12:30) 5 (13:50) 0 0 0 0 0
29-11-2017 8.1 (00:00) 0 (00:00) 4.1 8.06 (15:40) 5.83 (15:40) 0.2 0.2 0 0 0
28-11-2017 10.1 (16:00) 3.5 (00:00) 6.8 5.28 (09:10) 3.89 (09:10) 1 0 0 0.6 0.4
27-11-2017 11.4 (16:30) -1.4 (-00:0) 5 3.61 (09:40) 2.5 (00:40) 0 0 0 0 0
26-11-2017 9.2 (15:30) 0.8 (00:00) 5 10 (13:20) 7.5 (14:00) 0 0 0 0 0
25-11-2017 11.6 (14:00) 4.6 (00:00) 8.1 9.17 (16:20) 6.67 (16:20) 0 0 0 0 0
24-11-2017 16 (13:40) 9.6 (00:00) 12.8 16.11 (01:10) 9.72 (01:20) 3.4 0.2 0 2.2 1
23-11-2017 17.5 (14:50) 9.6 (00:00) 13.6 13.89 (12:10) 8.33 (12:20) 1.2 0 0 0 1.2
22-11-2017 17.4 (13:20) 0.5 (00:00) 8.9 13.06 (18:40) 7.78 (13:00) 0 0 0 0 0
21-11-2017 18.9 (14:20) -0.8 (-00:0) 9 7.22 (16:10) 4.72 (16:20) 0 0 0 0 0
20-11-2017 18.4 (16:00) -1.3 (-00:0) 8.5 4.44 (22:00) 3.89 (22:00) 0 0 0 0 0
19-11-2017 15.9 (16:00) 0.3 (00:00) 8.1 5.83 (05:30) 4.72 (03:30) 0 0 0 0 0
18-11-2017 15.3 (15:40) 1.7 (00:00) 8.5 7.22 (15:50) 5.56 (10:30) 0 0 0 0 0
17-11-2017 18 (14:30) -0.3 (00:00) 8.8 6.94 (15:40) 4.44 (15:10) 0 0 0 0 0
16-11-2017 16.4 (15:50) -0.7 (-00:0) 7.8 5 (14:40) 3.61 (13:30) 0 0 0 0 0
15-11-2017 15.5 (16:40) -1.3 (-00:0) 7.1 5.83 (02:20) 3.89 (02:00) 0 0 0 0 0

Gráficas

Temp. máximas Temp. mínimas Temp. medias Precipitaciones Rachas de viento máximas Velocidades máximas media en intervalos de 10 minutos

Datos horarios

Fecha y hora oficial Temperatura (ºC) Velocidad del viento (km/h) Dirección del viento Racha (km/h) Dirección de racha Precipitación (mm) Presión (hPa) Tendencia (hPa) Humedad (%)
2017-12-14 23:00:00 9.1 21 Oeste 37 Oeste 0 -- -- 89
2017-12-14 22:00:00 9.7 13 Oeste 37 Oeste 0 -- -- 94
2017-12-14 21:00:00 10.3 25 Oeste 40 Sudoeste 0 -- -- 94
2017-12-14 20:00:00 10.1 16 Sudoeste 31 Sudoeste 0 -- -- 92
2017-12-14 19:00:00 10 17 Sudoeste 34 Sudoeste 0 -- -- 93
2017-12-14 18:00:00 10.5 19 Sudoeste 36 Oeste 0 -- -- 91
2017-12-14 17:00:00 11.1 22 Sudoeste 49 Oeste 0 -- -- 88
2017-12-14 16:00:00 11.3 23 Sudoeste 43 Sudoeste 0 -- -- 92
2017-12-14 15:00:00 11.7 22 Sudoeste 39 Sudoeste 0 -- -- 90
2017-12-14 14:00:00 11.6 25 Sudoeste 39 Oeste 0 -- -- 94
2017-12-14 13:00:00 10 15 Sudoeste 24 Sudoeste 0.2 -- -- 98
2017-12-14 12:00:00 9.8 12 Sudoeste 27 Sudoeste 0 -- -- 97
2017-12-14 11:00:00 9.8 18 Sudoeste 30 Sudoeste 0 -- -- 95
2017-12-14 10:00:00 9.7 12 Sudoeste 25 Sudoeste 0 -- -- 94
2017-12-14 09:00:00 9.7 16 Sudoeste 26 Sudoeste 0 -- -- 93
2017-12-14 08:00:00 9.2 15 Sudoeste 31 Oeste 0 -- -- 94
2017-12-14 07:00:00 9 19 Sudoeste 27 Sudoeste 0 -- -- 95
2017-12-14 06:00:00 9 17 Sudoeste 31 Sudoeste 0 -- -- 96
2017-12-14 05:00:00 8.7 14 Sudoeste 28 Sudoeste 0 -- -- 97
2017-12-14 04:00:00 8.6 15 Sudoeste 28 Sudoeste 0 -- -- 97
2017-12-14 03:00:00 8.6 14 Sudoeste 25 Sudoeste 0 -- -- 96
2017-12-14 02:00:00 8.9 14 Sudoeste 28 Sudoeste 0 -- -- 94
2017-12-14 01:00:00 8.7 17 Sudoeste 26 Sudoeste 0 -- -- 93
2017-12-14 00:00:00 7.9 15 Sudoeste 26 Sudoeste 0 -- -- 93
2017-12-13 23:00:00 6.9 15 Sur 25 Sudoeste 0 -- -- 94
2017-12-13 22:00:00 7 17 Sur 24 Sur 0 -- -- 93
2017-12-13 21:00:00 7.1 9 Sudoeste 20 Sudoeste 0 -- -- 92
2017-12-13 20:00:00 7.2 9 Sudoeste 19 Sudoeste 0 -- -- 91
2017-12-13 19:00:00 7.5 11 Sudoeste 22 Sudoeste 0 -- -- 89
2017-12-13 18:00:00 8 15 Sudoeste 32 Oeste 0 -- -- 87
2017-12-13 17:00:00 8.9 21 Oeste 37 Sudoeste 0 -- -- 84
2017-12-13 16:00:00 9.3 17 Sudoeste 30 Sudoeste 0 -- -- 83
2017-12-13 15:00:00 9.3 19 Sudoeste 31 Oeste 0 -- -- 78
2017-12-13 14:00:00 9.5 16 Sudoeste 32 Sudoeste 0 -- -- 81
2017-12-13 13:00:00 9.7 14 Sudoeste 27 Oeste 0 -- -- 79
2017-12-13 12:00:00 9.1 13 Oeste 21 Sudoeste 0 -- -- 80
2017-12-13 11:00:00 7.6 10 Sudoeste 18 Sudeste 0 -- -- 83
2017-12-13 10:00:00 5.2 12 Sur 15 Sur 0 -- -- 88
2017-12-13 09:00:00 3.8 6 Sur 14 Sur 0 -- -- 88
2017-12-13 08:00:00 3.3 6 Sur 13 Sur 0 -- -- 88
2017-12-13 07:00:00 3.3 9 Sur 14 Sur 0 -- -- 88
2017-12-13 06:00:00 3 10 Sur 14 Sur 0 -- -- 91
2017-12-13 05:00:00 2.4 7 Sudoeste 12 Sur 0 -- -- 94
2017-12-13 04:00:00 1.6 5 Sur 10 Sur 0 -- -- 93
2017-12-13 03:00:00 1.5 7 Sur 15 Sur 0 -- -- 91
2017-12-13 02:00:00 1.4 10 Sur 14 Sur 0 -- -- 91
2017-12-13 01:00:00 0.9 7 Sur 11 Sur 0 -- -- 92
2017-12-13 00:00:00 1.4 8 Sur 10 Sudoeste 0 -- -- 91
2017-12-12 23:00:00 0.8 6 Sur 9 Sudeste 0 -- -- 92
2017-12-12 22:00:00 1.4 6 Sur 9 Sudoeste 0 -- -- 90
2017-12-12 21:00:00 1.8 5 Sur 10 Sur 0 -- -- 89
2017-12-12 20:00:00 1.9 4 Sur 7 Sur 0 -- -- 88
2017-12-12 19:00:00 3.1 3 Sudoeste 9 Oeste 0 -- -- 85
2017-12-12 18:00:00 4.3 7 Oeste 12 Oeste 0 -- -- 80
2017-12-12 17:00:00 5.5 9 Noroeste 17 Noroeste 0 -- -- 74
2017-12-12 16:00:00 6.4 9 Noroeste 16 Oeste 0 -- -- 76
2017-12-12 15:00:00 6.3 9 Oeste 15 Noroeste 0 -- -- 75
2017-12-12 14:00:00 5.5 8 Sudoeste 15 Sudoeste 0 -- -- 82
2017-12-12 13:00:00 3.9 6 Oeste 15 Oeste 0 -- -- 85
2017-12-12 12:00:00 3.1 7 Oeste 14 Oeste 0 -- -- 89
2017-12-12 11:00:00 1.9 9 Sur 14 Sur 0 -- -- 93
2017-12-12 10:00:00 0.4 6 Sudoeste 11 Sudoeste 0 -- -- 96
2017-12-12 09:00:00 0.1 6 Sudoeste 11 Sudoeste 0 -- -- 97
2017-12-12 08:00:00 -0.3 6 Sudoeste 10 Sudoeste 0 -- -- 96
2017-12-12 07:00:00 -0.6 5 Sur 12 Sudoeste 0 -- -- 96
2017-12-12 06:00:00 -1 4 Sur 9 Sudoeste 0 -- -- 96
2017-12-12 05:00:00 -0.9 4 Sudoeste 10 Sudoeste 0 -- -- 95
2017-12-12 04:00:00 -0.7 6 Sur 11 Sudoeste 0 -- -- 95
2017-12-12 03:00:00 -0.1 7 Oeste 11 Oeste 0 -- -- 93
2017-12-12 02:00:00 -0.2 5 Oeste 9 Sudoeste 0 -- -- 91
2017-12-12 01:00:00 -0.4 2 Sudeste 10 Noroeste 0 -- -- 91
2017-12-12 00:00:00 0.3 3 Noroeste 13 Noroeste 0 -- -- 88
2017-12-11 23:00:00 0.5 4 Noroeste 13 Noroeste 0 -- -- 87
2017-12-11 22:00:00 1.1 11 Noroeste 21 Noroeste 0 -- -- 86
2017-12-11 21:00:00 1.7 13 Noroeste 23 Oeste 0 -- -- 86
2017-12-11 20:00:00 2.7 15 Noroeste 31 Noroeste 0 -- -- 88
2017-12-11 19:00:00 3.5 17 Oeste 26 Oeste 0 -- -- 92
2017-12-11 18:00:00 3.9 15 Noroeste 31 Noroeste 0 -- -- 89
2017-12-11 17:00:00 4.2 15 Noroeste 26 Noroeste 0 -- -- 93
2017-12-11 16:00:00 3.9 13 Oeste 26 Sudoeste 0.4 -- -- 94
2017-12-11 15:00:00 4 12 Oeste 32 Oeste 0.8 -- -- 95
2017-12-11 14:00:00 4.6 22 Oeste 38 Sudoeste 0.4 -- -- 90
2017-12-11 13:00:00 5.6 22 Sudoeste 43 Oeste 0 -- -- 81
2017-12-11 12:00:00 4.7 19 Oeste 38 Sudoeste 0 -- -- 85
2017-12-11 11:00:00 3.8 21 Sudoeste 37 Sudoeste 0 -- -- 90
2017-12-11 10:00:00 3.4 20 Sudoeste 29 Sudoeste 0 -- -- 91
2017-12-11 09:00:00 3.2 17 Sudoeste 30 Oeste 0 -- -- 92
2017-12-11 08:00:00 3.6 18 Oeste 54 Oeste 0 -- -- 94
2017-12-11 07:00:00 4.3 31 Oeste 55 Oeste 0.4 -- -- 91
2017-12-11 06:00:00 4.9 27 Sudoeste 42 Sudoeste 0 -- -- 89
2017-12-11 05:00:00 5 22 Sudoeste 46 Sudoeste 0 -- -- 90
2017-12-11 04:00:00 5.3 26 Sudoeste 43 Sudoeste 0 -- -- 90
2017-12-11 03:00:00 5.3 30 Sudoeste 69 Oeste 2.6 -- -- 91
2017-12-11 02:00:00 6 25 Sudoeste 48 Sudoeste 3.6 -- -- 94
2017-12-11 01:00:00 4.8 26 Sudoeste 81 Sudoeste 8.6 -- -- 96
2017-12-11 00:00:00 10.4 47 Sur 76 Sur 2 -- -- 89
2017-12-10 23:00:00 10.1 46 Sudoeste 76 Sudoeste 1.4 -- -- 90
2017-12-10 22:00:00 10.1 42 Sudoeste 68 Sudoeste 1.2 -- -- 90
2017-12-10 21:00:00 10.1 44 Sudoeste 88 Sudoeste 0.6 -- -- 91
2017-12-10 20:00:00 10.3 37 Sur 65 Sudoeste 0 -- -- 86
2017-12-10 19:00:00 10.2 39 Sudoeste 67 Sudoeste 0 -- -- 84
2017-12-10 18:00:00 10.2 36 Sudoeste 58 Sudoeste 0 -- -- 83
2017-12-10 17:00:00 10.4 34 Sudoeste 62 Sudoeste 0 -- -- 89
2017-12-10 16:00:00 10.9 35 Sudoeste 54 Sudoeste 0 -- -- 87
2017-12-10 15:00:00 11 26 Sudoeste 53 Sudoeste 0 -- -- 90
2017-12-10 14:00:00 11.1 30 Sudoeste 54 Sudoeste 0 -- -- 86
2017-12-10 13:00:00 10.5 25 Sudoeste 47 Sur 0 -- -- 87
2017-12-10 12:00:00 10.4 26 Sudoeste 42 Sudoeste 0 -- -- 84
2017-12-10 11:00:00 9.8 27 Sur 41 Sudoeste 0 -- -- 84
2017-12-10 10:00:00 9.6 23 Sudoeste 39 Sur 0 -- -- 84
2017-12-10 09:00:00 9 23 Sudoeste 38 Sudoeste 0 -- -- 85
2017-12-10 08:00:00 8.3 13 Sudoeste 30 Sudoeste 0 -- -- 86
2017-12-10 07:00:00 8.1 18 Sudoeste 27 Sudoeste 0 -- -- 86
2017-12-10 06:00:00 8.8 14 Sudoeste 30 Sudoeste 0 -- -- 85
2017-12-10 05:00:00 8.8 18 Sudoeste 30 Sudoeste 0 -- -- 88
2017-12-10 04:00:00 9.1 18 Sudoeste 31 Sudoeste 0 -- -- 87
2017-12-10 03:00:00 8.6 13 Sudoeste 30 Sur 0 -- -- 93
2017-12-10 02:00:00 8.9 18 Sudoeste 33 Sudoeste 0 -- -- 93
2017-12-10 01:00:00 9.3 16 Sudoeste 26 Sudoeste 0 -- -- 93
2017-12-10 00:00:00 10 18 Sudoeste 32 Sudoeste 0 -- -- 93
2017-12-09 23:00:00 10.1 16 Sudoeste 35 Sudoeste 0 -- -- 93
2017-12-09 22:00:00 10.2 20 Sudoeste 30 Sudoeste 0 -- -- 92
2017-12-09 21:00:00 10.3 17 Sudoeste 27 Sudoeste 0 -- -- 92
2017-12-09 20:00:00 10.1 13 Sudoeste 24 Oeste 0 -- -- 92
2017-12-09 19:00:00 10.4 16 Sudoeste 26 Sudoeste 0 -- -- 91
2017-12-09 18:00:00 10.9 19 Sudoeste 26 Oeste 0 -- -- 88
2017-12-09 17:00:00 11.3 12 Sudoeste 28 Sudoeste 0 -- -- 85
2017-12-09 16:00:00 11.8 14 Sudoeste 26 Sudoeste 0 -- -- 84
2017-12-09 15:00:00 12 15 Oeste 29 Oeste 0 -- -- 81
2017-12-09 14:00:00 11.2 12 Oeste 21 Sudoeste 0.2 -- -- 90
2017-12-09 13:00:00 11.1 11 Sudoeste 17 Oeste 0 -- -- 92
2017-12-09 12:00:00 10.4 11 Oeste 20 Sudoeste 0 -- -- 93
2017-12-09 11:00:00 9.7 12 Oeste 20 Sudoeste 0 -- -- 96
2017-12-09 10:00:00 9.3 11 Sudoeste 18 Oeste 0 -- -- 97
2017-12-09 09:00:00 9.1 10 Oeste 18 Oeste 0 -- -- 97
2017-12-09 08:00:00 9.3 12 Oeste 17 Sudoeste 0 -- -- 97
2017-12-09 07:00:00 9.4 10 Oeste 22 Oeste 0 -- -- 97
2017-12-09 06:00:00 9.5 9 Oeste 14 Oeste 0 -- -- 97
2017-12-09 05:00:00 9.7 10 Oeste 18 Oeste 0 -- -- 98
2017-12-09 04:00:00 9.8 10 Oeste 22 Oeste 0 -- -- 97
2017-12-09 03:00:00 9.9 10 Oeste 21 Oeste 0 -- -- 97
2017-12-09 02:00:00 10.1 13 Oeste 22 Oeste 0 -- -- 97
2017-12-09 01:00:00 10.3 14 Oeste 23 Noroeste 0 -- -- 97
2017-12-09 00:00:00 10.5 13 Oeste 23 Oeste 0 -- -- 97
2017-12-08 23:00:00 10.6 14 Oeste 25 Oeste 0 -- -- 96
2017-12-08 22:00:00 10.7 10 Oeste 24 Oeste 0 -- -- 95
2017-12-08 21:00:00 10.7 16 Oeste 27 Oeste 0 -- -- 96
2017-12-08 20:00:00 10.8 13 Sudoeste 19 Oeste 0 -- -- 97
2017-12-08 19:00:00 10.8 11 Sudoeste 21 Oeste 0 -- -- 97
2017-12-08 18:00:00 10.7 10 Sudoeste 17 Oeste 0 -- -- 98
2017-12-08 17:00:00 10.8 10 Oeste 21 Oeste 0.2 -- -- 97
2017-12-08 16:00:00 10.7 10 Sudoeste 22 Oeste 0 -- -- 96
2017-12-08 15:00:00 10.5 13 Oeste 24 Sudoeste 0 -- -- 97
2017-12-08 14:00:00 10 11 Sudoeste 21 Oeste 0 -- -- 98
2017-12-08 13:00:00 9.4 8 Oeste 16 Oeste 0 -- -- 97
2017-12-08 12:00:00 9 6 Oeste 15 Oeste 0.2 -- -- 96
2017-12-08 11:00:00 8.8 9 Sudoeste 15 Sudoeste 0 -- -- 94
2017-12-08 10:00:00 7.7 6 Sudoeste 12 Sudoeste 0.2 -- -- 95
2017-12-08 09:00:00 6.9 2 Sudoeste 11 Sudoeste 0 -- -- 94
2017-12-08 08:00:00 6.1 3 Sudoeste 6 Sudoeste 0.2 -- -- 91
2017-12-08 07:00:00 7.3 3 Sudoeste 12 Sudoeste 0 -- -- 76
2017-12-08 06:00:00 7.5 6 Sudoeste 10 Sur 0 -- -- 65
2017-12-08 05:00:00 7.5 8 Sudoeste 13 Sudoeste 0 -- -- 57
2017-12-08 04:00:00 7.5 6 Sudoeste 11 Sudoeste 0 -- -- 57
2017-12-08 03:00:00 7.3 6 Sudoeste 13 Sudoeste 0 -- -- 58
2017-12-08 02:00:00 6.9 5 Sudoeste 9 Sudoeste 0 -- -- 61
2017-12-08 01:00:00 6.9 5 Sudoeste 8 Sur 0 -- -- 61
2017-12-08 00:00:00 7.1 5 Sudoeste 9 Sudoeste 0 -- -- 60
2017-12-07 23:00:00 7.6 5 Sudoeste 16 Sudoeste 0 -- -- 59
2017-12-07 22:00:00 7.5 8 Sudoeste 12 Sudoeste 0 -- -- 57
2017-12-07 21:00:00 8 9 Sudoeste 12 Sur 0 -- -- 50
2017-12-07 20:00:00 7.4 5 Sudoeste 8 Sudoeste 0 -- -- 52
2017-12-07 19:00:00 7.7 4 Sudoeste 8 Sur 0 -- -- 51
2017-12-07 18:00:00 9.7 4 Sur 9 Sudoeste 0 -- -- 46
2017-12-07 17:00:00 11.2 6 Sudoeste 15 Sudoeste 0 -- -- 37
2017-12-07 16:00:00 11.3 6 Oeste 14 Sudoeste 0 -- -- 38
2017-12-07 15:00:00 12.3 9 Oeste 17 Oeste 0 -- -- 34
2017-12-07 14:00:00 11.7 6 Sudoeste 14 Oeste 0 -- -- 36
2017-12-07 13:00:00 10.5 5 Sudoeste 9 Oeste 0 -- -- 38
2017-12-07 12:00:00 8.1 4 Noroeste 9 Oeste 0 -- -- 54
2017-12-07 11:00:00 5.7 3 Sur 8 Sudeste 0 -- -- 65
2017-12-07 10:00:00 1.4 7 Sur 9 Sur 0 -- -- 82
2017-12-07 09:00:00 -0.6 8 Sudeste 14 Sudeste 0 -- -- 81
2017-12-07 08:00:00 -1 8 Sudeste 10 Sudeste 0 -- -- 87
2017-12-07 07:00:00 -1.5 4 Sudeste 10 Sudeste 0 -- -- 86
2017-12-07 06:00:00 0.1 7 Sudeste 13 Sudeste 0 -- -- 83
2017-12-07 05:00:00 -0.1 3 Sudeste 5 Sudeste 0 -- -- 85
2017-12-07 04:00:00 0 0 Calma 4 Sudeste 0 -- -- 85
2017-12-07 03:00:00 0.1 0 Calma 6 Este 0 -- -- 85
2017-12-07 02:00:00 -0.4 4 Oeste 10 Sudeste 0 -- -- 83
2017-12-07 01:00:00 0.8 8 Sudeste 10 Sudeste 0 -- -- 80
2017-12-07 00:00:00 -0.5 5 Sudeste 7 Sudeste 0 -- -- 84
2017-12-06 23:00:00 0 4 Sudeste 12 Sudeste 0 -- -- 78
2017-12-06 22:00:00 -0.9 3 Sudeste 6 Sur 0 -- -- 80
2017-12-06 21:00:00 0.3 2 Sur 8 Sudeste 0 -- -- 78
2017-12-06 20:00:00 2.3 5 Sudeste 8 Este 0 -- -- 72
2017-12-06 19:00:00 2.7 3 Nordeste 6 Nordeste 0 -- -- 64
2017-12-06 18:00:00 5.5 0 Calma 0 Calma 0 -- -- 57
2017-12-06 17:00:00 9.3 0 Calma 4 Oeste 0 -- -- 46
2017-12-06 16:00:00 9.4 4 Noroeste 6 Norte 0 -- -- 44
2017-12-06 15:00:00 8.9 4 Noroeste 8 Noroeste 0 -- -- 49
2017-12-06 14:00:00 8.1 5 Noroeste 10 Norte 0 -- -- 50
2017-12-06 13:00:00 6.2 4 Noroeste 6 Noroeste 0 -- -- 60
2017-12-06 12:00:00 3.7 2 Norte 5 Nordeste 0 -- -- 77
2017-12-06 11:00:00 0.6 4 Nordeste 5 Nordeste 0.2 -- -- 85
2017-12-06 10:00:00 -4.3 0 Calma 2 Noroeste 0 -- -- 95
2017-12-06 09:00:00 -6.4 0 Calma 4 Nordeste 0 -- -- 94
2017-12-06 08:00:00 -6.9 3 Este 3 Este 0 -- -- 93
2017-12-06 07:00:00 -6.7 0 Calma 5 Este 0 -- -- 94
2017-12-06 06:00:00 -6.7 4 Oeste 5 Oeste 0 -- -- 94
2017-12-06 05:00:00 -6.3 2 Nordeste 3 Nordeste 0 -- -- 94
2017-12-06 04:00:00 -5.8 0 Calma 4 Este 0 -- -- 95
2017-12-06 03:00:00 -6 2 Nordeste 6 Este 0 -- -- 94
2017-12-06 02:00:00 -5.3 2 Nordeste 6 Sudeste 0 -- -- 94
2017-12-06 01:00:00 -4.4 4 Este 10 Este 0 -- -- 95
2017-12-06 00:00:00 -4.5 5 Este 9 Este 0 -- -- 95
2017-12-05 23:00:00 -3.9 3 Nordeste 10 Este 0 -- -- 96
2017-12-05 22:00:00 -3 4 Este 9 Este 0 -- -- 96
2017-12-05 21:00:00 -2.4 3 Nordeste 6 Este 0 -- -- 94
2017-12-05 20:00:00 -0.8 5 Este 9 Sudeste 0 -- -- 94
2017-12-05 19:00:00 0.4 7 Este 12 Este 0 -- -- 90
2017-12-05 18:00:00 2.8 6 Nordeste 10 Nordeste 0 -- -- 83
2017-12-05 17:00:00 4.6 6 Nordeste 11 Nordeste 0 -- -- 81
2017-12-05 16:00:00 4.9 10 Nordeste 15 Nordeste 0 -- -- 80
2017-12-05 15:00:00 5 8 Nordeste 15 Nordeste 0 -- -- 81
2017-12-05 14:00:00 4.1 12 Nordeste 15 Nordeste 0 -- -- 86
2017-12-05 13:00:00 2.7 8 Nordeste 13 Nordeste 0 -- -- 98
2017-12-05 12:00:00 0.8 6 Nordeste 11 Este 0 -- -- 100
2017-12-05 11:00:00 -1.5 8 Nordeste 10 Nordeste 0 -- -- 99
2017-12-05 10:00:00 -3 6 Nordeste 10 Este 0 -- -- 98
2017-12-05 09:00:00 -4 6 Nordeste 12 Este 0 -- -- 98
2017-12-05 08:00:00 -3.6 9 Este 12 Este 0 -- -- 97
2017-12-05 07:00:00 -4.4 6 Este 9 Este 0 -- -- 96
2017-12-05 06:00:00 -4 7 Nordeste 11 Este 0 -- -- 95
2017-12-05 05:00:00 -3.6 6 Nordeste 6 Nordeste 0 -- -- 96
2017-12-05 04:00:00 -2.7 6 Nordeste 13 Este 0 -- -- 96
2017-12-05 03:00:00 -3.2 8 Nordeste 11 Este 0 -- -- 94
2017-12-05 02:00:00 -1.6 7 Este 12 Este 0 -- -- 95
2017-12-05 01:00:00 -2.1 6 Este 9 Este 0 -- -- 95
2017-12-05 00:00:00 -1.5 6 Este 8 Este 0 -- -- 93
2017-12-04 23:00:00 -0.5 4 Este 13 Este 0 -- -- 91
2017-12-04 22:00:00 -1.1 5 Este 13 Este 0 -- -- 90
2017-12-04 21:00:00 0.8 9 Este 17 Este 0 -- -- 88
2017-12-04 20:00:00 0.8 9 Este 12 Este 0 -- -- 88
2017-12-04 19:00:00 1.8 7 Este 15 Este 0 -- -- 83
2017-12-04 18:00:00 4.5 10 Este 21 Este 0 -- -- 74
2017-12-04 17:00:00 6.5 17 Este 26 Este 0 -- -- 67
2017-12-04 16:00:00 6.7 21 Nordeste 30 Este 0 -- -- 66
2017-12-04 15:00:00 7.1 21 Este 30 Este 0 -- -- 65
2017-12-04 14:00:00 6.9 21 Nordeste 32 Nordeste 0 -- -- 67
2017-12-04 13:00:00 6.3 23 Este 33 Este 0 -- -- 69
2017-12-04 12:00:00 5.5 24 Este 33 Este 0 -- -- 70
2017-12-04 11:00:00 3.7 14 Este 23 Este 0 -- -- 79
2017-12-04 10:00:00 -0.7 4 Nordeste 13 Este 0 -- -- 94
2017-12-04 09:00:00 -2.9 8 Este 13 Este 0 -- -- 93
2017-12-04 08:00:00 -3.9 5 Este 13 Nordeste 0 -- -- 93
2017-12-04 07:00:00 -3.3 10 Este 15 Este 0 -- -- 92
2017-12-04 06:00:00 -3.3 5 Este 12 Este 0 -- -- 92
2017-12-04 05:00:00 -3.1 3 Nordeste 7 Este 0 -- -- 91
2017-12-04 04:00:00 -3.2 3 Nordeste 11 Nordeste 0 -- -- 88
2017-12-04 03:00:00 -2.4 11 Nordeste 13 Este -- -- -- 90
2017-12-04 02:00:00 -3.5 5 Este 8 Este 0 -- -- 91
2017-12-04 01:00:00 -3.5 3 Este 6 Este 0 -- -- 91
2017-12-04 00:00:00 -2 0 Calma 9 Este 0 -- -- 86
2017-12-03 23:00:00 -0.6 6 Este 18 Este 0 -- -- 84
2017-12-03 22:00:00 -1.1 5 Este 11 Este 0 -- -- 85
2017-12-03 21:00:00 -0.8 7 Este 9 Este 0 -- -- 83
2017-12-03 20:00:00 0.4 5 Este 7 Este 0 -- -- 77
2017-12-03 19:00:00 1.6 4 Este 19 Nordeste 0 -- -- 73
2017-12-03 18:00:00 3.6 15 Nordeste 28 Este 0 -- -- 66
2017-12-03 17:00:00 4.8 23 Nordeste 37 Nordeste 0 -- -- 62
2017-12-03 16:00:00 5.3 22 Este 37 Nordeste 0 -- -- 62
2017-12-03 15:00:00 5.4 27 Este 36 Este 0 -- -- 62
2017-12-03 14:00:00 5.2 25 Este 36 Este 0 -- -- 63
2017-12-03 13:00:00 5.1 23 Este 38 Este 0 -- -- 63
2017-12-03 12:00:00 4 22 Nordeste 32 Nordeste 0 -- -- 69
2017-12-03 11:00:00 2.3 13 Este 22 Este 0 -- -- 80
2017-12-03 10:00:00 -2.5 0 Calma 4 Nordeste 0 -- -- 96
2017-12-03 09:00:00 -4.7 2 Norte 3 Norte 0 -- -- 95
2017-12-03 08:00:00 -5.1 0 Calma 4 Este 0 -- -- 95
2017-12-03 07:00:00 -5.2 0 Calma 3 Nordeste 0 -- -- 94
2017-12-03 06:00:00 -5 0 Calma 3 Nordeste 0 -- -- 92
2017-12-03 05:00:00 -4.2 0 Calma 3 Sur 0 -- -- 92
2017-12-03 04:00:00 -3.5 2 Este 8 Este 0 -- -- 92
2017-12-03 03:00:00 -3.3 2 Norte 5 Este 0 -- -- 90
2017-12-03 02:00:00 -2.5 0 Calma 11 Nordeste 0 -- -- 86
2017-12-03 01:00:00 -1.1 9 Este 13 Este 0 -- -- 83
2017-12-03 00:00:00 -0.4 9 Este 19 Este 0 -- -- 80
2017-12-02 23:00:00 -0.7 5 Este 9 Este 0 -- -- 80
2017-12-02 22:00:00 -0.6 5 Nordeste 6 Nordeste 0 -- -- 78
2017-12-02 21:00:00 -0.5 0 Calma 10 Norte 0 -- -- 78
2017-12-02 20:00:00 1.2 5 Oeste 10 Oeste 0 -- -- 71
2017-12-02 19:00:00 2.8 3 Este 7 Este 0 -- -- 64
2017-12-02 18:00:00 4.5 2 Este 9 Nordeste 0 -- -- 63
2017-12-02 17:00:00 6 5 Nordeste 13 Este 0 -- -- 59
2017-12-02 16:00:00 6.3 8 Norte 17 Nordeste 0 -- -- 56
2017-12-02 15:00:00 5.6 3 Norte 15 Norte 0 -- -- 61
2017-12-02 14:00:00 4.3 5 Norte 10 Norte 0 -- -- 64
2017-12-02 13:00:00 3.2 5 Noroeste 9 Noroeste 0 -- -- 69
2017-12-02 12:00:00 1.8 4 Sudoeste 8 Sudoeste 0 -- -- 75
2017-12-02 11:00:00 0.2 5 Sudoeste 8 Sur 0 -- -- 80
2017-12-02 10:00:00 -3.7 0 Calma 4 Sudoeste 0 -- -- 94
2017-12-02 09:00:00 -4.4 5 Sudeste 9 Sudeste 0 -- -- 93
2017-12-02 08:00:00 -5 6 Sur 9 Sudeste 0 -- -- 93
2017-12-02 07:00:00 -5.3 5 Sur 6 Sudeste 0 -- -- 95
2017-12-02 06:00:00 -5.3 2 Sur 4 Sudeste 0 -- -- 94
2017-12-02 05:00:00 -4.9 0 Calma 5 Sudeste 0 -- -- 94
2017-12-02 04:00:00 -4.8 3 Sudeste 4 Sudeste 0 -- -- 93
2017-12-02 03:00:00 -3.9 2 Sur 3 Sudeste 0 -- -- 92
2017-12-02 02:00:00 -3 0 Calma 10 Este 0 -- -- 87
2017-12-02 01:00:00 -2.3 9 Este 14 Este 0 -- -- 88
2017-12-02 00:00:00 -1.3 8 Este 12 Este 0 -- -- 83
2017-12-01 23:00:00 -0.8 9 Nordeste 12 Nordeste 0 -- -- 83
2017-12-01 22:00:00 -0.1 8 Este 16 Nordeste 0 -- -- 82
2017-12-01 21:00:00 1.1 16 Nordeste 28 Nordeste 0 -- -- 75
2017-12-01 20:00:00 1.6 17 Nordeste 23 Nordeste 0 -- -- 74
2017-12-01 19:00:00 2.2 10 Norte 23 Nordeste 0 -- -- 76
2017-12-01 18:00:00 3.9 17 Nordeste 24 Nordeste 0 -- -- 75
2017-12-01 17:00:00 4 9 Nordeste 41 Norte 0.4 -- -- 90
2017-12-01 16:00:00 7.2 24 Noroeste 42 Noroeste 0 -- -- 72
2017-12-01 15:00:00 6.8 23 Noroeste 39 Noroeste 0 -- -- 73
2017-12-01 14:00:00 6.8 26 Noroeste 40 Noroeste 0 -- -- 72
2017-12-01 13:00:00 5.5 21 Noroeste 39 Oeste 0 -- -- 78
2017-12-01 12:00:00 5.1 23 Oeste 45 Oeste 0 -- -- 82
2017-12-01 11:00:00 3 10 Oeste 27 Oeste 0 -- -- 91
2017-12-01 10:00:00 -0.1 8 Sudoeste 16 Sudoeste 0 -- -- 94
2017-12-01 09:00:00 -1.4 8 Sudoeste 18 Sudoeste 0 -- -- 95
2017-12-01 08:00:00 -2.3 8 Sudoeste 16 Sudoeste 0 -- -- 93
2017-12-01 07:00:00 -1.6 7 Sudoeste 12 Sudoeste 0 -- -- 93
2017-12-01 06:00:00 -1.4 6 Sudoeste 11 Sudoeste 0 -- -- 92
2017-12-01 05:00:00 -1.4 6 Sudoeste 10 Sudoeste 0 -- -- 90
2017-12-01 04:00:00 -1.6 5 Sudoeste 8 Sudoeste 0 -- -- 90
2017-12-01 03:00:00 -1 7 Sur 12 Sur 0 -- -- 86
2017-12-01 02:00:00 -1 7 Sudoeste 11 Sudoeste 0 -- -- 86
2017-12-01 01:00:00 -1.2 5 Sudoeste 7 Sudoeste 0 -- -- 87
2017-12-01 00:00:00 -2.6 3 Sur 4 Sur 0 -- -- 90
2017-11-30 23:00:00 -1.3 4 Sur 10 Sur 0 -- -- 84
2017-11-30 22:00:00 -1.2 6 Sur 9 Sur 0 -- -- 87
2017-11-30 21:00:00 -1.3 0 Calma 4 Oeste 0 -- -- 85
2017-11-30 20:00:00 -0.6 2 Sur 2 Sur 0 -- -- 83
2017-11-30 19:00:00 1.1 0 Calma 5 Norte 0 -- -- 77
2017-11-30 18:00:00 3.8 5 Norte 14 Norte 0 -- -- 66
2017-11-30 17:00:00 5.9 6 Norte 18 Norte 0 -- -- 57
2017-11-30 16:00:00 5.9 10 Nordeste 17 Nordeste 0 -- -- 59
2017-11-30 15:00:00 5.6 8 Nordeste 21 Nordeste 0 -- -- 62
2017-11-30 14:00:00 4.9 15 Nordeste 24 Nordeste 0 -- -- 68
2017-11-30 13:00:00 4.1 16 Nordeste 25 Nordeste 0 -- -- 74
2017-11-30 12:00:00 2.9 16 Nordeste 22 Este 0 -- -- 82
2017-11-30 11:00:00 1.4 14 Nordeste 19 Este 0 -- -- 90
2017-11-30 10:00:00 -1.1 6 Nordeste 10 Este 0 -- -- 96
2017-11-30 09:00:00 -2.9 6 Este 14 Nordeste 0 -- -- 96
2017-11-30 08:00:00 -3 6 Nordeste 9 Este 0 -- -- 97
2017-11-30 07:00:00 -3 5 Nordeste 8 Este 0 -- -- 96
2017-11-30 06:00:00 -2.6 4 Este 10 Este 0 -- -- 96
2017-11-30 05:00:00 -2 7 Nordeste 10 Este 0 -- -- 95
2017-11-30 04:00:00 -1.7 9 Este 10 Este 0 -- -- 95
2017-11-30 03:00:00 -1 7 Este 14 Este 0 -- -- 93
2017-11-30 02:00:00 -0.5 10 Este 14 Este 0 -- -- 92
2017-11-30 01:00:00 -0.5 10 Nordeste 15 Nordeste 0 -- -- 90
2017-11-30 00:00:00 0 10 Nordeste 13 Nordeste 0 -- -- 88
2017-11-29 23:00:00 1 12 Nordeste 18 Nordeste 0 -- -- 88
2017-11-29 22:00:00 0.3 9 Nordeste 10 Nordeste 0 -- -- 93
2017-11-29 21:00:00 0.8 6 Este 8 Nordeste 0 -- -- 89
2017-11-29 20:00:00 2.3 5 Este 10 Este 0 -- -- 85
2017-11-29 19:00:00 4 9 Este 14 Nordeste 0 -- -- 81
2017-11-29 18:00:00 5.4 13 Nordeste 26 Nordeste 0 -- -- 72
2017-11-29 17:00:00 6.9 19 Nordeste 23 Nordeste 0 -- -- 62
2017-11-29 16:00:00 7.2 16 Nordeste 29 Nordeste 0 -- -- 67
2017-11-29 15:00:00 6.2 15 Nordeste 23 Norte 0 -- -- 76
2017-11-29 14:00:00 4.7 15 Nordeste 21 Nordeste 0 -- -- 92
2017-11-29 13:00:00 2.8 13 Nordeste 24 Nordeste 0 -- -- 100
2017-11-29 12:00:00 2.3 13 Nordeste 24 Este 0 -- -- 100
2017-11-29 11:00:00 1.6 16 Nordeste 22 Nordeste 0 -- -- 100
2017-11-29 10:00:00 1.7 12 Nordeste 17 Nordeste 0 -- -- 100
2017-11-29 09:00:00 1.2 10 Nordeste 19 Nordeste 0 -- -- 100
2017-11-29 08:00:00 0.7 15 Nordeste 20 Nordeste 0 -- -- 100
2017-11-29 07:00:00 1.5 12 Este 17 Este 0 -- -- 99
2017-11-29 06:00:00 1.2 8 Nordeste 15 Este 0 -- -- 99
2017-11-29 05:00:00 0.4 6 Nordeste 10 Nordeste 0 -- -- 98
2017-11-29 04:00:00 0.5 6 Norte 8 Norte 0.2 -- -- 95
2017-11-29 03:00:00 3.1 3 Nordeste 5 Este 0 -- -- 95
2017-11-29 02:00:00 4.9 4 Nordeste 9 Norte 0 -- -- 93
2017-11-29 01:00:00 6.9 6 Norte 13 Norte 0 -- -- 96
2017-11-29 00:00:00 8.1 8 Norte 12 Norte 0 -- -- 98
2017-11-28 23:00:00 8.7 8 Noroeste 11 Noroeste 0 -- -- 98
2017-11-28 22:00:00 9 5 Noroeste 9 Sudoeste 0.2 -- -- 98
2017-11-28 21:00:00 9.5 5 Sudoeste 11 Sudoeste 0.2 -- -- 98
2017-11-28 20:00:00 9.6 6 Sudoeste 9 Sudoeste 0 -- -- 98
2017-11-28 19:00:00 9.6 2 Oeste 6 Oeste 0 -- -- 97
2017-11-28 18:00:00 9.7 4 Oeste 9 Oeste 0 -- -- 97
2017-11-28 17:00:00 9.8 5 Oeste 14 Sudoeste 0 -- -- 96
2017-11-28 16:00:00 10.1 9 Oeste 17 Oeste 0 -- -- 96
2017-11-28 15:00:00 9.9 10 Sudoeste 16 Oeste 0 -- -- 96
2017-11-28 14:00:00 9.3 7 Sudoeste 12 Sudoeste 0.2 -- -- 96
2017-11-28 13:00:00 8.8 5 Oeste 14 Sudoeste 0.4 -- -- 95
2017-11-28 12:00:00 9 7 Sudoeste 16 Sudoeste 0 -- -- 87
2017-11-28 11:00:00 8.9 11 Sudoeste 15 Sudoeste 0 -- -- 84
2017-11-28 10:00:00 8.5 8 Sudoeste 19 Sur 0 -- -- 84
2017-11-28 09:00:00 7.5 11 Sur 16 Sur 0 -- -- 81
2017-11-28 08:00:00 6.2 3 Sudoeste 7 Sudoeste 0 -- -- 74
2017-11-28 07:00:00 5.8 4 Sudoeste 10 Sudoeste 0 -- -- 73
2017-11-28 06:00:00 6 6 Sudoeste 12 Sur 0 -- -- 71
2017-11-28 05:00:00 4.5 2 Sudoeste 5 Sur 0 -- -- 83
2017-11-28 04:00:00 4.7 2 Sur 5 Sur 0 -- -- 80
2017-11-28 03:00:00 4.3 0 Calma 6 Sur 0 -- -- 85
2017-11-28 02:00:00 4.5 2 Sudeste 10 Sur 0 -- -- 78
2017-11-28 01:00:00 4.6 7 Sur 10 Sudeste 0 -- -- 77
2017-11-28 00:00:00 3.5 2 Sur 6 Sur 0 -- -- 83
2017-11-27 23:00:00 4.4 6 Sur 8 Sur 0 -- -- 77
2017-11-27 22:00:00 5.5 4 Sur 6 Sudoeste 0 -- -- 77
2017-11-27 21:00:00 5.1 0 Calma 5 Sur 0 -- -- 85
2017-11-27 20:00:00 4.9 4 Sur 7 Sudoeste 0 -- -- 81
2017-11-27 19:00:00 5.6 2 Sudeste 5 Sudeste 0 -- -- 76
2017-11-27 18:00:00 8.4 0 Calma 6 Norte 0 -- -- 63
2017-11-27 17:00:00 10.9 3 Norte 9 Norte 0 -- -- 55
2017-11-27 16:00:00 11.3 4 Norte 12 Norte 0 -- -- 54
2017-11-27 15:00:00 10.8 5 Noroeste 10 Noroeste 0 -- -- 56
2017-11-27 14:00:00 9.5 4 Norte 8 Noroeste 0 -- -- 62
2017-11-27 13:00:00 7.7 0 Calma 6 Norte 0 -- -- 70
2017-11-27 12:00:00 6.2 3 Norte 5 Norte 0 -- -- 77
2017-11-27 11:00:00 4.6 0 Calma 7 Sudeste 0 -- -- 80
2017-11-27 10:00:00 1.3 6 Este 13 Este 0 -- -- 90
2017-11-27 09:00:00 -0.3 3 Sudeste 11 Este 0 -- -- 93
2017-11-27 08:00:00 -0.2 8 Este 12 Este 0 -- -- 93
2017-11-27 07:00:00 -0.4 0 Calma 8 Este 0 -- -- 92
2017-11-27 06:00:00 -0.7 3 Nordeste 8 Nordeste 0 -- -- 94
2017-11-27 05:00:00 -0.3 3 Nordeste 6 Sur 0 -- -- 92
2017-11-27 04:00:00 -0.2 4 Este 10 Nordeste 0 -- -- 92
2017-11-27 03:00:00 -1.3 5 Este 6 Nordeste 0 -- -- 91
2017-11-27 02:00:00 -0.8 5 Este 8 Este 0 -- -- 91
2017-11-27 01:00:00 0.3 5 Este 12 Nordeste 0 -- -- 87
2017-11-27 00:00:00 1.5 7 Este 14 Este 0 -- -- 83
2017-11-26 23:00:00 2.3 8 Este 16 Sudeste 0 -- -- 79
2017-11-26 22:00:00 1.8 7 Este 12 Este 0 -- -- 81
2017-11-26 21:00:00 2.2 6 Este 19 Este 0 -- -- 77
2017-11-26 20:00:00 2.8 10 Este 14 Nordeste 0 -- -- 80
2017-11-26 19:00:00 3.7 10 Nordeste 14 Nordeste 0 -- -- 78
2017-11-26 18:00:00 6.2 12 Nordeste 22 Nordeste 0 -- -- 68
2017-11-26 17:00:00 8.8 14 Nordeste 27 Nordeste 0 -- -- 54
2017-11-26 16:00:00 9.2 19 Nordeste 27 Nordeste 0 -- -- 54
2017-11-26 15:00:00 8.9 20 Nordeste 33 Este 0 -- -- 57
2017-11-26 14:00:00 8.1 27 Nordeste 36 Este 0 -- -- 56
2017-11-26 13:00:00 7.1 24 Nordeste 49 Nordeste 0 -- -- 65
2017-11-26 12:00:00 5.9 25 Nordeste 32 Nordeste 0 -- -- 71
2017-11-26 11:00:00 4.8 19 Este 29 Este 0 -- -- 73
2017-11-26 10:00:00 3.3 18 Este 24 Este 0 -- -- 79
2017-11-26 09:00:00 1.3 7 Este 19 Nordeste 0 -- -- 84
2017-11-26 08:00:00 1.3 16 Nordeste 22 Nordeste 0 -- -- 82
2017-11-26 07:00:00 0.8 15 Este 25 Nordeste 0 -- -- 89
2017-11-26 06:00:00 0.8 15 Nordeste 22 Nordeste 0 -- -- 91
2017-11-26 05:00:00 1.5 17 Este 24 Este 0 -- -- 90
2017-11-26 04:00:00 2.2 19 Nordeste 25 Este 0 -- -- 87
2017-11-26 03:00:00 2.5 17 Este 26 Nordeste 0 -- -- 88
2017-11-26 02:00:00 2.7 18 Nordeste 25 Nordeste 0 -- -- 92
2017-11-26 01:00:00 3.6 17 Nordeste 26 Este 0 -- -- 90
2017-11-26 00:00:00 4.6 19 Nordeste 26 Este 0 -- -- 87
2017-11-25 23:00:00 5.5 19 Nordeste 27 Nordeste 0 -- -- 88
2017-11-25 22:00:00 6.1 14 Este 19 Nordeste 0 -- -- 90
2017-11-25 21:00:00 6.8 13 Este 22 Este 0 -- -- 91
2017-11-25 20:00:00 7.7 16 Nordeste 23 Nordeste 0 -- -- 89
2017-11-25 19:00:00 8.6 15 Nordeste 24 Nordeste 0 -- -- 86
2017-11-25 18:00:00 9.3 19 Nordeste 29 Nordeste 0 -- -- 84
2017-11-25 17:00:00 10.1 21 Nordeste 33 Este 0 -- -- 84
2017-11-25 16:00:00 10.7 21 Nordeste 29 Este 0 -- -- 85
2017-11-25 15:00:00 11.2 18 Nordeste 27 Este 0 -- -- 80
2017-11-25 14:00:00 11.6 19 Nordeste 24 Nordeste 0 -- -- 82
2017-11-25 13:00:00 10.5 17 Nordeste 23 Nordeste 0 -- -- 85
2017-11-25 12:00:00 9.6 16 Nordeste 26 Nordeste 0 -- -- 91
2017-11-25 11:00:00 9.4 17 Nordeste 25 Nordeste 0 -- -- 94
2017-11-25 10:00:00 10.1 6 Norte 8 Norte 0 -- -- 89
2017-11-25 09:00:00 9.8 2 Sudoeste 9 Sur 0 -- -- 85
2017-11-25 08:00:00 10.1 8 Sur 11 Sur 0 -- -- 83
2017-11-25 07:00:00 10.1 4 Sudoeste 11 Sudoeste 0 -- -- 78
2017-11-25 06:00:00 9.5 6 Sudoeste 13 Sur 0 -- -- 82
2017-11-25 05:00:00 9.7 7 Sudoeste 12 Sudoeste 0 -- -- 83
2017-11-25 04:00:00 10.2 8 Oeste 14 Sudoeste 0 -- -- 82
2017-11-25 03:00:00 10.6 8 Sudoeste 28 Sudoeste 0 -- -- 77
2017-11-25 02:00:00 11.3 18 Sudoeste 31 Sudoeste 0 -- -- 76
2017-11-25 01:00:00 11.1 15 Sudoeste 26 Sudoeste 0 -- -- 81
2017-11-25 00:00:00 11.1 12 Sudoeste 28 Sudoeste 0 -- -- 84
2017-11-24 23:00:00 11.2 12 Sur 22 Sudoeste 0 -- -- 79
2017-11-24 22:00:00 12 17 Sudoeste 27 Sudoeste 0 -- -- 82
2017-11-24 21:00:00 11.5 11 Sur 19 Sur 0 -- -- 88
2017-11-24 20:00:00 11.4 8 Sudoeste 27 Sur 0.4 -- -- 91
2017-11-24 19:00:00 11.5 5 Sur 16 Sudoeste 0.6 -- -- 94
2017-11-24 18:00:00 11.5 8 Oeste 14 Sur 0.6 -- -- 92
2017-11-24 17:00:00 12.2 6 Sur 13 Sur 0.4 -- -- 88
2017-11-24 16:00:00 12.6 3 Sudoeste 14 Sur 0.2 -- -- 94
2017-11-24 15:00:00 12.4 13 Sur 33 Sudoeste 1 -- -- 94
2017-11-24 14:00:00 14.9 25 Sudoeste 41 Sudoeste 0 -- -- 75
2017-11-24 13:00:00 15.6 24 Sudoeste 37 Sudoeste 0 -- -- 73
2017-11-24 12:00:00 13.7 21 Sudoeste 36 Sudoeste 0 -- -- 80
2017-11-24 11:00:00 12.7 12 Sudoeste 28 Sudoeste 0 -- -- 87
2017-11-24 10:00:00 11.3 14 Sudoeste 23 Sur 0 -- -- 90
2017-11-24 09:00:00 10.7 9 Sudoeste 15 Sudoeste 0 -- -- 91
2017-11-24 08:00:00 10.6 9 Sudoeste 23 Sudoeste 0 -- -- 90
2017-11-24 07:00:00 11 12 Sudoeste 32 Sur 0 -- -- 87
2017-11-24 06:00:00 10.9 19 Sudoeste 44 Sur 0 -- -- 86
2017-11-24 05:00:00 11 24 Sudoeste 41 Sudoeste 0 -- -- 82
2017-11-24 04:00:00 10.8 21 Sur 39 Sur 0 -- -- 83
2017-11-24 03:00:00 10.2 22 Sur 43 Sur 0 -- -- 85
2017-11-24 02:00:00 10.5 30 Sur 58 Sur 0 -- -- 83
2017-11-24 01:00:00 10.6 28 Sur 44 Sur 0.2 -- -- 79
2017-11-24 00:00:00 9.6 12 Sudeste 35 Sudeste 0 -- -- 83
2017-11-23 23:00:00 10.1 22 Sur 38 Sur 0.2 -- -- 80
2017-11-23 22:00:00 10.8 20 Sur 40 Sudoeste 1 -- -- 77
2017-11-23 21:00:00 14.9 22 Sur 41 Sur 0 -- -- 42
2017-11-23 20:00:00 14.9 18 Sur 35 Sur 0 -- -- 44
2017-11-23 19:00:00 13.7 9 Sur 27 Sur 0 -- -- 46
2017-11-23 18:00:00 14.6 13 Sur 31 Sur 0 -- -- 45
2017-11-23 17:00:00 15.2 19 Sur 32 Sur 0 -- -- 44
2017-11-23 16:00:00 15.7 20 Sur 41 Sur 0 -- -- 43
2017-11-23 15:00:00 16.9 26 Sur 42 Sur 0 -- -- 42
2017-11-23 14:00:00 16.5 23 Sur 41 Sur 0 -- -- 48
2017-11-23 13:00:00 15.8 23 Sudoeste 50 Sudoeste 0 -- -- 55
2017-11-23 12:00:00 15.2 22 Sur 36 Sudoeste 0 -- -- 61
2017-11-23 11:00:00 14.4 23 Sudoeste 37 Sur 0 -- -- 68
2017-11-23 10:00:00 12.8 26 Sudoeste 46 Sudoeste 0 -- -- 79
2017-11-23 09:00:00 11.6 16 Sudoeste 27 Sudoeste 0 -- -- 70
2017-11-23 08:00:00 11.6 13 Sudoeste 36 Sur 0 -- -- 66
2017-11-23 07:00:00 12.1 24 Sur 37 Sur 0 -- -- 73
2017-11-23 06:00:00 12.1 22 Sudoeste 43 Sudoeste 0 -- -- 71
2017-11-23 05:00:00 12.4 22 Sudoeste 41 Sudoeste 0 -- -- 67
2017-11-23 04:00:00 12.5 24 Sudoeste 41 Sudoeste 0 -- -- 58
2017-11-23 03:00:00 11.9 12 Sur 26 Sudoeste 0 -- -- 49
2017-11-23 02:00:00 13.5 15 Sudoeste 26 Sudoeste 0 -- -- 44
2017-11-23 01:00:00 13.7 17 Sur 33 Sur 0 -- -- 45
2017-11-23 00:00:00 13.7 17 Sur 30 Sur 0 -- -- 44
2017-11-22 23:00:00 13.8 21 Sur 34 Sur 0 -- -- 41
2017-11-22 22:00:00 14.1 21 Sur 34 Sur 0 -- -- 41
2017-11-22 21:00:00 14 23 Sur 39 Sur 0 -- -- 41
2017-11-22 20:00:00 14 24 Sur 42 Sur 0 -- -- 39
2017-11-22 19:00:00 14.6 26 Sur 47 Sur 0 -- -- 37
2017-11-22 18:00:00 13.9 19 Sur 33 Sur 0 -- -- 39
2017-11-22 17:00:00 14.6 20 Sur 35 Sur 0 -- -- 39
2017-11-22 16:00:00 15.8 23 Sur 43 Sudoeste 0 -- -- 35
2017-11-22 15:00:00 16.4 21 Sur 37 Sudoeste 0 -- -- 34
2017-11-22 14:00:00 17.1 22 Sudoeste 38 Sudoeste 0 -- -- 33
2017-11-22 13:00:00 17.2 28 Sur 39 Sur 0 -- -- 33
2017-11-22 12:00:00 16.3 14 Sudoeste 26 Sur 0 -- -- 37
2017-11-22 11:00:00 11.8 9 Oeste 15 Oeste 0 -- -- 49
2017-11-22 10:00:00 7.7 0 Calma 5 Noroeste 0 -- -- 62
2017-11-22 09:00:00 3.5 3 Sur 6 Sudeste 0 -- -- 76
2017-11-22 08:00:00 1.1 3 Oeste 25 Noroeste 0 -- -- 76
2017-11-22 07:00:00 4.6 10 Sudeste 13 Sudeste 0 -- -- 67
2017-11-22 06:00:00 0.8 0 Calma 9 Sudeste 0 -- -- 77
2017-11-22 05:00:00 4.6 5 Sudeste 10 Sudeste 0 -- -- 65
2017-11-22 04:00:00 1.5 0 Calma 8 Sur 0 -- -- 76
2017-11-22 03:00:00 2.9 0 Calma 9 Noroeste 0 -- -- 69
2017-11-22 02:00:00 2.7 0 Calma 13 Sudeste 0 -- -- 69
2017-11-22 01:00:00 5.2 9 Sudeste 12 Sudeste 0 -- -- 65
2017-11-22 00:00:00 3.4 3 Sudeste 8 Sudeste 0 -- -- 70
2017-11-21 23:00:00 3.6 0 Calma 10 Sudeste 0 -- -- 63
2017-11-21 22:00:00 6.4 8 Sudeste 11 Sudeste 0 -- -- 55
2017-11-21 21:00:00 7.9 8 Sudeste 12 Sudeste 0 -- -- 51
2017-11-21 20:00:00 8.5 9 Sudeste 12 Sudeste 0 -- -- 52
2017-11-21 19:00:00 9.1 5 Sudeste 9 Sur 0 -- -- 50
2017-11-21 18:00:00 14.8 5 Sur 21 Sudoeste 0 -- -- 35
2017-11-21 17:00:00 17.2 15 Sudoeste 26 Oeste 0 -- -- 30
2017-11-21 16:00:00 18.8 15 Sudoeste 24 Sudoeste 0 -- -- 26
2017-11-21 15:00:00 18.8 13 Sur 23 Sudoeste 0 -- -- 29
2017-11-21 14:00:00 18.6 10 Sur 20 Sur 0 -- -- 30
2017-11-21 13:00:00 17.4 5 Oeste 11 Sudoeste 0 -- -- 35
2017-11-21 12:00:00 15.8 3 Sudeste 8 Sur 0 -- -- 40
2017-11-21 11:00:00 11.8 0 Calma 4 Sudeste 0 -- -- 54
2017-11-21 10:00:00 7.1 3 Sur 14 Sudeste 0 -- -- 61
2017-11-21 09:00:00 3.7 11 Sudeste 13 Sudeste 0 -- -- 66
2017-11-21 08:00:00 1.8 5 Sudeste 12 Sudeste 0 -- -- 69
2017-11-21 07:00:00 2.1 10 Sudeste 13 Sudeste 0 -- -- 68
2017-11-21 06:00:00 1.1 7 Sudeste 9 Sudeste 0 -- -- 76
2017-11-21 05:00:00 -0.8 4 Sudeste 5 Sudeste 0 -- -- 82
2017-11-21 04:00:00 -0.2 0 Calma 2 Norte 0 -- -- 81
2017-11-21 03:00:00 0.9 0 Calma 11 Sudeste 0 -- -- 75
2017-11-21 02:00:00 4.3 9 Sudeste 16 Sudeste 0 -- -- 66
2017-11-21 01:00:00 4.5 11 Sudeste 14 Sudeste 0 -- -- 64
2017-11-21 00:00:00 4.8 11 Sudeste 15 Sudeste 0 -- -- 63
2017-11-20 23:00:00 4.8 13 Sudeste 16 Sudeste 0 -- -- 66
2017-11-20 22:00:00 6 14 Sudeste 16 Sudeste 0 -- -- 66
2017-11-20 21:00:00 8.3 3 Oeste 8 Sudoeste 0 -- -- 59
2017-11-20 20:00:00 8.1 2 Sur 8 Sur 0 -- -- 59
2017-11-20 19:00:00 9.6 4 Sudoeste 5 Sudoeste 0 -- -- 50
2017-11-20 18:00:00 15.3 3 Sudoeste 7 Sudoeste 0 -- -- 34
2017-11-20 17:00:00 17.4 6 Oeste 10 Sudoeste 0 -- -- 29
2017-11-20 16:00:00 18.4 5 Sudoeste 12 Oeste 0 -- -- 29
2017-11-20 15:00:00 17.6 7 Oeste 13 Sudoeste 0 -- -- 30
2017-11-20 14:00:00 16.7 7 Noroeste 13 Oeste 0 -- -- 35
2017-11-20 13:00:00 15 4 Noroeste 9 Oeste 0 -- -- 40
2017-11-20 12:00:00 12.3 0 Calma 4 Norte 0 -- -- 51
2017-11-20 11:00:00 8.2 0 Calma 4 Oeste 0 -- -- 64
2017-11-20 10:00:00 4.6 0 Calma 5 Este 0 -- -- 69
2017-11-20 09:00:00 -0.1 4 Este 8 Este 0 -- -- 83
2017-11-20 08:00:00 -0.6 3 Sudeste 10 Este 0 -- -- 80
2017-11-20 07:00:00 -0.9 6 Este 9 Este 0 -- -- 81
2017-11-20 06:00:00 -1.2 3 Sudeste 5 Este 0 -- -- 85
2017-11-20 05:00:00 -0.2 3 Sudeste 10 Este 0 -- -- 83
2017-11-20 04:00:00 0.1 6 Este 9 Este 0 -- -- 88
2017-11-20 03:00:00 -0.2 2 Sur 8 Este 0 -- -- 84
2017-11-20 02:00:00 0.1 3 Este 9 Este 0 -- -- 85
2017-11-20 01:00:00 -0.1 4 Nordeste 5 Nordeste 0 -- -- 86
2017-11-20 00:00:00 1 0 Calma 5 Sudeste 0 -- -- 83
2017-11-19 23:00:00 2 4 Este 6 Sudeste 0 -- -- 78
2017-11-19 22:00:00 3.9 3 Sudeste 8 Sudeste 0 -- -- 73
2017-11-19 21:00:00 5.7 0 Calma 11 Este 0 -- -- 67
2017-11-19 20:00:00 6.3 7 Este 12 Este 0 -- -- 63
2017-11-19 19:00:00 8.5 8 Este 9 Este 0 -- -- 58
2017-11-19 18:00:00 12.8 2 Nordeste 8 Norte 0 -- -- 46
2017-11-19 17:00:00 15.1 5 Norte 10 Noroeste 0 -- -- 42
2017-11-19 16:00:00 15.9 6 Noroeste 11 Norte 0 -- -- 37
2017-11-19 15:00:00 15.5 6 Norte 13 Norte 0 -- -- 42
2017-11-19 14:00:00 14 7 Norte 14 Norte 0 -- -- 42
2017-11-19 13:00:00 12.2 6 Nordeste 10 Nordeste 0 -- -- 55
2017-11-19 12:00:00 10 7 Nordeste 12 Nordeste 0 -- -- 64
2017-11-19 11:00:00 7 7 Nordeste 10 Este 0 -- -- 75
2017-11-19 10:00:00 3.3 5 Nordeste 8 Nordeste 0 -- -- 84
2017-11-19 09:00:00 1.1 3 Este 13 Este 0 -- -- 88
2017-11-19 08:00:00 1 10 Este 15 Este 0 -- -- 90
2017-11-19 07:00:00 1.2 10 Este 17 Este 0 -- -- 88
2017-11-19 06:00:00 1.2 12 Este 21 Este 0 -- -- 89
2017-11-19 05:00:00 0.9 12 Este 15 Este 0 -- -- 87
2017-11-19 04:00:00 2.2 12 Este 20 Este 0 -- -- 80
2017-11-19 03:00:00 2.3 14 Este 17 Este 0 -- -- 82
2017-11-19 02:00:00 1.6 4 Este 10 Este 0 -- -- 82
2017-11-19 01:00:00 2.5 8 Este 14 Este 0 -- -- 82
2017-11-19 00:00:00 5.1 8 Este 12 Este 0 -- -- 73
2017-11-18 23:00:00 4.5 8 Este 10 Este 0 -- -- 76
2017-11-18 22:00:00 3.9 8 Este 10 Este 0 -- -- 78
2017-11-18 21:00:00 5.4 0 Calma 6 Nordeste 0 -- -- 71
2017-11-18 20:00:00 7.7 0 Calma 11 Este 0 -- -- 61
2017-11-18 19:00:00 9.8 9 Este 16 Nordeste 0 -- -- 56
2017-11-18 18:00:00 12.2 15 Nordeste 23 Nordeste 0 -- -- 48
2017-11-18 17:00:00 14.7 13 Nordeste 24 Este 0 -- -- 43
2017-11-18 16:00:00 15.2 19 Nordeste 26 Nordeste 0 -- -- 42
2017-11-18 15:00:00 15 17 Nordeste 25 Nordeste 0 -- -- 43
2017-11-18 14:00:00 13.6 19 Nordeste 23 Nordeste 0 -- -- 47
2017-11-18 13:00:00 12.3 15 Nordeste 23 Nordeste 0 -- -- 52
2017-11-18 12:00:00 10.6 14 Nordeste 19 Nordeste 0 -- -- 57
2017-11-18 11:00:00 8.4 13 Nordeste 24 Nordeste 0 -- -- 63
2017-11-18 10:00:00 6.7 14 Nordeste 22 Nordeste 0 -- -- 66
2017-11-18 09:00:00 4 8 Este 14 Este 0 -- -- 77
2017-11-18 08:00:00 1.8 4 Nordeste 8 Nordeste 0 -- -- 84
2017-11-18 07:00:00 2.4 4 Nordeste 8 Este 0 -- -- 82
2017-11-18 06:00:00 2.7 6 Este 13 Este 0 -- -- 83
2017-11-18 05:00:00 3.7 8 Este 13 Este 0 -- -- 80
2017-11-18 04:00:00 3.7 0 Calma 12 Este 0 -- -- 78
2017-11-18 03:00:00 3.3 7 Este 9 Este 0 -- -- 80
2017-11-18 02:00:00 2.3 5 Nordeste 7 Nordeste 0 -- -- 80
2017-11-18 01:00:00 2.8 4 Nordeste 6 Nordeste 0 -- -- 77
2017-11-18 00:00:00 3.8 4 Nordeste 9 Este 0 -- -- 74
2017-11-17 23:00:00 6.1 4 Sudeste 10 Sudeste 0 -- -- 66
2017-11-17 22:00:00 7.9 10 Este 13 Sudeste 0 -- -- 61
2017-11-17 21:00:00 7.7 3 Este 12 Este 0 -- -- 60
2017-11-17 20:00:00 9.8 10 Este 13 Este 0 -- -- 54
2017-11-17 19:00:00 11 9 Nordeste 12 Nordeste 0 -- -- 50
2017-11-17 18:00:00 14.1 8 Nordeste 16 Nordeste 0 -- -- 43
2017-11-17 17:00:00 16.8 12 Nordeste 18 Este 0 -- -- 37
2017-11-17 16:00:00 17.8 14 Nordeste 25 Nordeste 0 -- -- 31
2017-11-17 15:00:00 17.6 16 Nordeste 22 Nordeste 0 -- -- 30
2017-11-17 14:00:00 17.2 13 Nordeste 17 Nordeste 0 -- -- 33
2017-11-17 13:00:00 15.2 12 Nordeste 16 Nordeste 0 -- -- 39
2017-11-17 12:00:00 14.2 9 Nordeste 14 Nordeste 0 -- -- 45
2017-11-17 11:00:00 10.5 6 Nordeste 13 Este 0 -- -- 57
2017-11-17 10:00:00 7.1 5 Nordeste 11 Este 0 -- -- 65
2017-11-17 09:00:00 3.1 8 Este 17 Este 0 -- -- 78
2017-11-17 08:00:00 1.6 10 Este 14 Este 0 -- -- 80
2017-11-17 07:00:00 1.2 8 Sudeste 11 Este 0 -- -- 84
2017-11-17 06:00:00 0.1 0 Calma 5 Nordeste 0 -- -- 84
2017-11-17 05:00:00 2.1 4 Este 15 Este 0 -- -- 77
2017-11-17 04:00:00 2.8 12 Este 17 Este 0 -- -- 76
2017-11-17 03:00:00 1.7 9 Este 15 Este 0 -- -- 81
2017-11-17 02:00:00 2 0 Calma 5 Este 0 -- -- 78
2017-11-17 01:00:00 2.5 4 Este 6 Este 0 -- -- 77
2017-11-17 00:00:00 3.5 0 Calma 4 Sudeste 0 -- -- 73
2017-11-16 23:00:00 3.6 0 Calma 2 Sudoeste 0 -- -- 72
2017-11-16 22:00:00 5.2 0 Calma 12 Este 0 -- -- 65
2017-11-16 21:00:00 7.3 10 Este 16 Este 0 -- -- 59
2017-11-16 20:00:00 8.4 9 Este 10 Este 0 -- -- 56
2017-11-16 19:00:00 10.9 7 Nordeste 12 Este 0 -- -- 48
2017-11-16 18:00:00 13.2 5 Este 13 Nordeste 0 -- -- 42
2017-11-16 17:00:00 15.9 11 Nordeste 14 Este 0 -- -- 34
2017-11-16 16:00:00 16.3 9 Nordeste 14 Nordeste 0 -- -- 32
2017-11-16 15:00:00 15.9 9 Nordeste 18 Norte 0 -- -- 32
2017-11-16 14:00:00 15.1 12 Nordeste 18 Nordeste 0 -- -- 33
2017-11-16 13:00:00 14.3 10 Nordeste 15 Norte 0 -- -- 37
2017-11-16 12:00:00 12.6 11 Nordeste 15 Este 0 -- -- 40
2017-11-16 11:00:00 8.9 8 Nordeste 12 Este 0 -- -- 55
2017-11-16 10:00:00 4.9 9 Este 12 Este 0 -- -- 71
2017-11-16 09:00:00 0.9 3 Este 5 Este 0 -- -- 83
2017-11-16 08:00:00 -0.3 4 Este 6 Este 0 -- -- 86
2017-11-16 07:00:00 0 4 Sudeste 6 Este 0 -- -- 86
2017-11-16 06:00:00 0.2 0 Calma 5 Sudeste 0 -- -- 87
2017-11-16 05:00:00 -0.3 0 Calma 3 Este 0 -- -- 87
2017-11-16 04:00:00 0.4 0 Calma 0 Calma 0 -- -- 85
2017-11-16 03:00:00 0.5 0 Calma 4 Sudeste 0 -- -- 85
2017-11-16 02:00:00 1.4 0 Calma 5 Este 0 -- -- 82
2017-11-16 01:00:00 2.6 0 Calma 4 Sudeste 0 -- -- 79
2017-11-16 00:00:00 2.8 3 Sudeste 6 Sudeste 0 -- -- 80
2017-11-15 23:00:00 3.9 3 Sudeste 9 Sudeste 0 -- -- 76
2017-11-15 22:00:00 5.3 8 Sudeste 12 Sudeste 0 -- -- 70
2017-11-15 21:00:00 5.6 7 Sudeste 10 Sudeste 0 -- -- 69
2017-11-15 20:00:00 7.3 4 Sudeste 6 Este 0 -- -- 62
2017-11-15 19:00:00 9.6 3 Este 4 Este 0 -- -- 53
2017-11-15 18:00:00 13.1 2 Este 4 Noroeste 0 -- -- 44
2017-11-15 17:00:00 15.5 0 Calma 9 Norte 0 -- -- 37
2017-11-15 16:00:00 15.3 2 Oeste 10 Noroeste 0 -- -- 38
2017-11-15 15:00:00 14.1 4 Noroeste 14 Oeste 0 -- -- 40
2017-11-15 14:00:00 12.8 6 Noroeste 14 Oeste 0 -- -- 42
2017-11-15 13:00:00 11.2 6 Noroeste 13 Noroeste 0 -- -- 47
2017-11-15 12:00:00 9.5 3 Noroeste 7 Norte 0 -- -- 56
2017-11-15 11:00:00 6.6 0 Calma 5 Nordeste 0 -- -- 65
2017-11-15 10:00:00 3.1 4 Nordeste 6 Este 0 -- -- 74
2017-11-15 09:00:00 0.5 4 Este 6 Este 0 -- -- 83
2017-11-15 08:00:00 -1.2 3 Este 6 Este 0 -- -- 86
2017-11-15 07:00:00 -0.2 5 Este 13 Este 0 -- -- 82
2017-11-15 06:00:00 -0.6 3 Este 6 Este 0 -- -- 84
2017-11-15 05:00:00 -0.6 0 Calma 9 Nordeste 0 -- -- 84
2017-11-15 04:00:00 0.4 6 Nordeste 16 Este 0 -- -- 80
2017-11-15 03:00:00 1.8 12 Este 21 Este 0 -- -- 74
2017-11-15 02:00:00 1.9 14 Este 18 Este 0 -- -- 74
2017-11-15 01:00:00 2.4 11 Este 16 Este 0 -- -- 72
2017-11-15 00:00:00 2.8 12 Este 16 Este 0 -- -- 73